createdAt,value
2018-02-05T00:01:49.131Z,78.10
2018-02-05T00:04:16.707Z,78.00
2018-02-05T00:06:44.391Z,78.00
2018-02-05T00:09:11.976Z,77.80
2018-02-05T00:11:39.640Z,77.90
2018-02-05T00:14:08.844Z,77.80
2018-02-05T00:16:36.502Z,77.70
2018-02-05T00:19:04.871Z,77.50
2018-02-05T00:21:32.551Z,77.60
2018-02-05T00:24:00.150Z,77.50
2018-02-05T00:26:27.767Z,77.50
2018-02-05T00:28:55.372Z,77.60
2018-02-05T00:31:22.946Z,77.60
2018-02-05T00:33:50.550Z,77.70
2018-02-05T00:36:18.215Z,77.70
2018-02-05T00:38:45.883Z,77.60
2018-02-05T00:41:13.472Z,77.50
2018-02-05T00:43:41.885Z,77.10
2018-02-05T00:46:09.483Z,77.10
2018-02-05T00:48:37.091Z,76.90
2018-02-05T00:51:04.707Z,76.80
2018-02-05T00:53:32.363Z,76.60
2018-02-05T00:56:00.037Z,76.60
2018-02-05T00:58:27.695Z,76.60
2018-02-05T01:00:55.342Z,76.50
2018-02-05T01:03:23.024Z,76.30
2018-02-05T01:05:50.628Z,76.10
2018-02-05T01:08:18.238Z,76.20
2018-02-05T01:10:45.907Z,76.30
2018-02-05T01:13:13.576Z,76.50
2018-02-05T01:15:41.183Z,76.60
2018-02-05T01:18:08.764Z,77.20
2018-02-05T01:20:36.376Z,76.30
2018-02-05T01:23:04.901Z,76.10
2018-02-05T01:25:32.603Z,76.10
2018-02-05T01:28:00.263Z,76.00
2018-02-05T01:30:27.862Z,76.60
2018-02-05T01:32:55.444Z,75.60
2018-02-05T01:35:23.042Z,75.70
2018-02-05T01:37:51.384Z,75.40
2018-02-05T01:40:19.083Z,75.40
2018-02-05T01:42:46.662Z,75.40
2018-02-05T01:45:14.263Z,75.30
2018-02-05T01:47:41.848Z,75.30
2018-02-05T01:50:09.540Z,75.20
2018-02-05T01:52:37.355Z,75.00
2018-02-05T01:55:04.967Z,75.50
2018-02-05T01:57:32.622Z,74.80
2018-02-05T02:00:00.390Z,74.80
2018-02-05T02:02:27.935Z,74.90
2018-02-05T02:04:55.523Z,74.90
2018-02-05T02:07:23.732Z,74.80
2018-02-05T02:09:51.354Z,74.10
2018-02-05T02:12:18.964Z,74.70
2018-02-05T02:14:46.546Z,74.60
2018-02-05T02:17:14.151Z,74.60
2018-02-05T02:19:42.494Z,74.40
2018-02-05T02:22:10.100Z,74.30
2018-02-05T02:24:38.447Z,74.10
2018-02-05T02:27:06.052Z,74.90
2018-02-05T02:29:33.631Z,74.00
2018-02-05T02:32:01.349Z,74.20
2018-02-05T02:34:29.723Z,74.30
2018-02-05T02:36:57.393Z,74.20
2018-02-05T02:39:25.049Z,74.10
2018-02-05T02:41:52.717Z,74.10
2018-02-05T02:44:21.832Z,74.20
2018-02-05T02:46:50.182Z,74.10
2018-02-05T02:49:17.787Z,74.10
2018-02-05T02:51:45.421Z,74.10
2018-02-05T02:54:13.799Z,74.30
2018-02-05T02:56:41.446Z,74.30
2018-02-05T02:59:09.111Z,74.70
2018-02-05T03:01:36.780Z,74.20
2018-02-05T03:04:04.435Z,74.20
2018-02-05T03:06:32.107Z,74.20
2018-02-05T03:08:59.718Z,74.20
2018-02-05T03:11:27.333Z,74.40
2018-02-05T03:13:54.939Z,74.60
2018-02-05T03:16:22.556Z,74.80
2018-02-05T03:18:50.179Z,74.90
2018-02-05T03:21:17.779Z,75.10
2018-02-05T03:23:45.449Z,75.20
2018-02-05T03:26:13.828Z,75.60
2018-02-05T03:28:41.483Z,75.60
2018-02-05T03:31:09.087Z,75.80
2018-02-05T03:33:36.704Z,76.00
2018-02-05T03:36:04.368Z,76.10
2018-02-05T03:38:32.032Z,76.20
2018-02-05T03:40:59.640Z,76.30
2018-02-05T03:43:27.260Z,76.60
2018-02-05T03:45:54.910Z,76.70
2018-02-05T03:48:24.000Z,76.70
2018-02-05T03:50:51.684Z,76.70
2018-02-05T03:53:19.271Z,76.70
2018-02-05T03:55:46.899Z,77.20
2018-02-05T03:58:14.564Z,76.70
2018-02-05T04:00:42.173Z,76.50
2018-02-05T04:03:09.755Z,76.30
2018-02-05T04:05:37.335Z,76.10
2018-02-05T04:08:04.944Z,76.10
2018-02-05T04:10:32.531Z,76.30
2018-02-05T04:13:00.126Z,76.30
2018-02-05T04:15:27.799Z,76.10
2018-02-05T04:17:56.176Z,76.80
2018-02-05T04:20:23.759Z,75.80
2018-02-05T04:22:52.130Z,75.70
2018-02-05T04:25:20.479Z,75.40
2018-02-05T04:27:48.091Z,75.40
2018-02-05T04:30:15.721Z,75.10
2018-02-05T04:32:43.380Z,74.90
2018-02-05T04:35:10.968Z,74.80
2018-02-05T04:37:39.418Z,74.30
2018-02-05T04:40:07.083Z,74.30
2018-02-05T04:42:34.679Z,74.10
2018-02-05T04:45:02.269Z,73.90
2018-02-05T04:47:29.896Z,73.80
2018-02-05T04:49:58.351Z,73.70
2018-02-05T04:52:25.935Z,73.60
2018-02-05T04:54:54.308Z,73.40
2018-02-05T04:57:22.656Z,73.40
2018-02-05T04:59:50.340Z,73.40
2018-02-05T05:02:18.000Z,73.60
2018-02-05T05:04:45.663Z,74.30
2018-02-05T05:07:13.323Z,73.90
2018-02-05T05:09:40.990Z,74.10
2018-02-05T05:12:09.359Z,74.10
2018-02-05T05:14:36.965Z,74.00
2018-02-05T05:17:04.591Z,74.00
2018-02-05T05:19:32.196Z,73.90
2018-02-05T05:21:59.781Z,73.80
2018-02-05T05:24:27.463Z,73.80
2018-02-05T05:26:55.131Z,73.80
2018-02-05T05:29:22.731Z,74.60
2018-02-05T05:31:51.715Z,74.00
2018-02-05T05:34:20.103Z,74.10
2018-02-05T05:36:48.558Z,74.00
2018-02-05T05:39:16.148Z,74.00
2018-02-05T05:41:43.756Z,73.70
2018-02-05T05:44:11.338Z,73.60
2018-02-05T05:46:39.003Z,73.30
2018-02-05T05:49:06.579Z,73.40
2018-02-05T05:51:35.044Z,73.40
2018-02-05T05:54:03.440Z,73.30
2018-02-05T05:56:31.903Z,73.30
2018-02-05T05:59:00.251Z,73.10
2018-02-05T06:01:27.948Z,73.20
2018-02-05T06:03:55.534Z,73.10
2018-02-05T06:06:23.898Z,72.80
2018-02-05T06:08:51.552Z,72.80
2018-02-05T06:11:19.156Z,73.00
2018-02-05T06:13:46.739Z,72.90
2018-02-05T06:16:14.435Z,72.80
2018-02-05T06:18:42.914Z,73.10
2018-02-05T06:21:10.494Z,73.10
2018-02-05T06:23:38.964Z,73.60
2018-02-05T06:26:07.439Z,73.40
2018-02-05T06:28:35.107Z,73.30
2018-02-05T06:31:02.688Z,73.40
2018-02-05T06:33:31.151Z,73.30
2018-02-05T06:35:58.735Z,73.40
2018-02-05T06:38:27.191Z,73.30
2018-02-05T06:40:56.207Z,73.30
2018-02-05T06:43:24.671Z,74.20
2018-02-05T06:45:52.330Z,73.40
2018-02-05T06:48:19.939Z,73.30
2018-02-05T06:50:59.368Z,73.40
2018-02-05T06:53:31.396Z,73.70
2018-02-05T06:59:03.103Z,73.40
2018-02-05T07:01:31.460Z,73.80
2018-02-05T07:03:59.120Z,73.80
2018-02-05T07:06:26.784Z,73.70
2018-02-05T07:08:54.387Z,73.50
2018-02-05T07:11:21.967Z,73.40
2018-02-05T07:13:49.662Z,73.30
2018-02-05T07:16:18.039Z,73.10
2018-02-05T07:18:45.648Z,73.00
2018-02-05T07:21:13.271Z,72.90
2018-02-05T07:23:41.652Z,72.50
2018-02-05T07:26:09.250Z,72.50
2018-02-05T07:28:36.832Z,72.40
2018-02-05T07:31:04.435Z,72.30
2018-02-05T07:33:32.095Z,72.00
2018-02-05T07:35:59.754Z,71.90
2018-02-05T07:38:28.143Z,71.20
2018-02-05T07:40:55.767Z,71.10
2018-02-05T07:43:23.776Z,71.10
2018-02-05T07:45:51.387Z,71.00
2018-02-05T07:48:19.096Z,70.90
2018-02-05T07:50:47.582Z,71.10
2018-02-05T07:53:15.243Z,71.10
2018-02-05T07:55:43.727Z,71.20
2018-02-05T07:58:12.103Z,71.40
2018-02-05T08:00:40.499Z,71.60
2018-02-05T08:03:08.148Z,71.50
2018-02-05T08:05:35.807Z,71.50
2018-02-05T08:08:03.438Z,71.80
2018-02-05T08:10:31.055Z,72.00
2018-02-05T08:12:58.796Z,72.20
2018-02-05T08:15:27.289Z,72.60
2018-02-05T08:17:54.919Z,72.60
2018-02-05T08:20:22.527Z,72.60
2018-02-05T08:22:50.266Z,72.80
2018-02-05T08:25:17.931Z,72.80
2018-02-05T08:27:46.411Z,73.10
2018-02-05T08:30:14.075Z,73.10
2018-02-05T08:32:41.739Z,73.20
2018-02-05T08:35:10.823Z,73.40
2018-02-05T08:37:38.446Z,73.40
2018-02-05T08:40:06.160Z,73.50
2018-02-05T08:42:33.824Z,73.40
2018-02-05T08:45:02.204Z,73.40
2018-02-05T08:47:29.859Z,73.50
2018-02-05T08:49:57.512Z,73.50
2018-02-05T08:52:25.193Z,73.40
2018-02-05T08:54:52.807Z,73.20
2018-02-05T08:57:20.515Z,72.80
2018-02-05T08:59:48.994Z,72.00
2018-02-05T09:02:17.378Z,71.90
2018-02-05T09:04:45.763Z,71.50
2018-02-05T09:07:14.127Z,71.30
2018-02-05T09:09:41.794Z,71.30
2018-02-05T09:12:10.159Z,71.20
2018-02-05T09:14:38.659Z,71.20
2018-02-05T09:17:07.143Z,71.20
2018-02-05T09:19:35.535Z,71.00
2018-02-05T09:22:03.252Z,71.00
2018-02-05T09:24:30.965Z,70.90
2018-02-05T09:26:58.620Z,70.80
2018-02-05T09:29:27.095Z,70.80
2018-02-05T09:31:54.682Z,70.80
2018-02-05T09:34:22.312Z,70.80
2018-02-05T09:36:50.699Z,71.20
2018-02-05T09:39:18.360Z,70.90
2018-02-05T09:41:45.935Z,71.00
2018-02-05T09:44:13.587Z,70.90
2018-02-05T09:46:41.251Z,70.80
2018-02-05T09:49:08.911Z,70.50
2018-02-05T09:51:37.395Z,70.30
2018-02-05T09:54:05.776Z,70.40
2018-02-05T09:56:33.387Z,70.40
2018-02-05T09:59:01.003Z,70.40
2018-02-05T10:01:28.659Z,70.30
2018-02-05T10:03:56.323Z,70.30
2018-02-05T10:06:23.927Z,70.50
2018-02-05T10:08:51.511Z,70.40
2018-02-05T10:11:19.111Z,70.30
2018-02-05T10:13:46.771Z,69.90
2018-02-05T10:16:14.376Z,69.30
2018-02-05T10:18:41.999Z,69.40
2018-02-05T10:21:09.599Z,68.80
2018-02-05T10:23:37.214Z,68.90
2018-02-05T10:26:04.823Z,68.80
2018-02-05T10:28:32.407Z,68.70
2018-02-05T10:31:00.104Z,68.50
2018-02-05T10:36:03.763Z,68.50
2018-02-05T10:38:31.389Z,68.40
2018-02-05T10:40:59.036Z,68.50
2018-02-05T10:43:26.807Z,69.00
2018-02-05T10:45:54.479Z,69.20
2018-02-05T10:48:22.079Z,69.10
2018-02-05T10:50:49.656Z,69.20
2018-02-05T10:53:17.364Z,69.10
2018-02-05T10:55:44.947Z,69.10
2018-02-05T10:58:13.324Z,69.00
2018-02-05T11:00:41.672Z,68.70
2018-02-05T11:03:09.276Z,68.60
2018-02-05T11:05:37.615Z,68.70
2018-02-05T11:08:05.287Z,68.50
2018-02-05T11:10:32.873Z,68.80
2018-02-05T11:13:01.341Z,68.50
2018-02-05T11:15:29.708Z,68.20
2018-02-05T11:17:57.383Z,68.20
2018-02-05T11:20:25.752Z,68.20
2018-02-05T11:22:53.418Z,68.30
2018-02-05T11:25:21.076Z,68.30
2018-02-05T11:27:48.744Z,68.20
2018-02-05T11:30:16.348Z,68.00
2018-02-05T11:32:43.936Z,67.90
2018-02-05T11:35:11.587Z,67.80
2018-02-05T11:37:39.160Z,67.90
2018-02-05T11:40:06.852Z,67.90
2018-02-05T11:42:34.516Z,67.80
2018-02-05T11:45:02.175Z,67.70
2018-02-05T11:47:29.759Z,67.60
2018-02-05T11:49:58.524Z,67.50
2018-02-05T11:52:26.110Z,67.50
2018-02-05T11:54:54.480Z,68.00
2018-02-05T11:57:22.853Z,68.30
2018-02-05T11:59:50.514Z,68.20
2018-02-05T12:02:18.171Z,68.60
2018-02-05T12:04:45.746Z,69.60
2018-02-05T12:07:14.220Z,68.20
2018-02-05T12:09:41.880Z,68.20
2018-02-05T12:12:09.496Z,67.80
2018-02-05T12:14:37.092Z,67.80
2018-02-05T12:17:05.494Z,67.90
2018-02-05T12:19:33.955Z,68.00
2018-02-05T12:22:01.576Z,68.00
2018-02-05T12:24:29.164Z,68.00
2018-02-05T12:26:56.843Z,67.70
2018-02-05T12:29:24.428Z,67.50
2018-02-05T12:31:52.795Z,67.20
2018-02-05T12:34:21.167Z,67.60
2018-02-05T12:36:48.832Z,67.60
2018-02-05T12:39:16.449Z,67.70
2018-02-05T12:41:44.155Z,67.70
2018-02-05T12:44:11.820Z,67.70
2018-02-05T12:46:39.425Z,67.80
2018-02-05T12:49:07.034Z,67.80
2018-02-05T12:51:34.712Z,67.80
2018-02-05T12:54:02.367Z,67.80
2018-02-05T12:56:29.950Z,68.10
2018-02-05T12:58:58.310Z,68.00
2018-02-05T13:01:36.563Z,67.90
2018-02-05T13:04:09.739Z,68.00
2018-02-05T13:06:41.916Z,67.60
2018-02-05T13:09:09.549Z,67.60
2018-02-05T13:11:37.270Z,67.00
2018-02-05T13:14:04.984Z,66.40
2018-02-05T13:16:33.357Z,66.40
2018-02-05T13:19:00.967Z,66.40
2018-02-05T13:21:29.032Z,66.50
2018-02-05T13:23:56.632Z,66.30
2018-02-05T13:26:24.229Z,66.20
2018-02-05T13:28:52.695Z,65.50
2018-02-05T13:31:20.351Z,65.30
2018-02-05T13:33:47.976Z,65.30
2018-02-05T13:36:15.580Z,64.70
2018-02-05T13:38:43.155Z,64.70
2018-02-05T13:41:11.620Z,64.30
2018-02-05T13:43:39.198Z,64.30
2018-02-05T13:46:07.664Z,63.90
2018-02-05T13:48:35.327Z,63.80
2018-02-05T13:51:02.947Z,63.80
2018-02-05T13:53:30.527Z,64.10
2018-02-05T13:55:58.212Z,64.20
2018-02-05T13:58:25.880Z,64.50
2018-02-05T14:00:53.601Z,64.60
2018-02-05T14:03:21.180Z,65.00
2018-02-05T14:05:48.859Z,64.40
2018-02-05T14:08:16.431Z,64.40
2018-02-05T14:10:44.089Z,64.80
2018-02-05T14:13:11.670Z,66.00
2018-02-05T14:15:40.128Z,65.10
2018-02-05T14:18:08.612Z,65.30
2018-02-05T14:20:36.211Z,65.10
2018-02-05T14:23:03.783Z,65.10
2018-02-05T14:25:31.368Z,65.20
2018-02-05T14:27:59.068Z,65.00
2018-02-05T14:30:26.643Z,65.10
2018-02-05T14:32:55.100Z,65.50
2018-02-05T14:35:22.684Z,65.50
2018-02-05T14:37:51.061Z,65.60
2018-02-05T14:40:19.415Z,65.50
2018-02-05T14:42:47.088Z,65.60
2018-02-05T14:45:14.749Z,65.70
2018-02-05T14:47:42.351Z,65.70
2018-02-05T14:50:09.935Z,65.50
2018-02-05T14:52:37.536Z,65.40
2018-02-05T14:55:05.128Z,65.10
2018-02-05T14:57:32.736Z,65.80
2018-02-05T15:00:00.420Z,65.00
2018-02-05T15:02:28.899Z,65.40
2018-02-05T15:04:56.564Z,65.30
2018-02-05T15:07:24.944Z,65.40
2018-02-05T15:09:53.423Z,64.80
2018-02-05T15:12:21.787Z,64.60
2018-02-05T15:14:49.474Z,64.60
2018-02-05T15:17:17.192Z,64.40
2018-02-05T15:19:44.895Z,64.40
2018-02-05T15:22:13.276Z,64.80
2018-02-05T15:24:41.667Z,65.00
2018-02-05T15:27:09.307Z,64.90
2018-02-05T15:29:37.698Z,65.60
2018-02-05T15:32:06.069Z,65.80
2018-02-05T15:34:34.613Z,65.80
2018-02-05T15:37:02.237Z,65.80
2018-02-05T15:39:29.862Z,65.80
2018-02-05T15:41:57.468Z,66.00
2018-02-05T15:44:25.212Z,66.10
2018-02-05T15:46:53.756Z,66.90
2018-02-05T15:49:21.412Z,66.90
2018-02-05T15:51:49.041Z,67.10
2018-02-05T15:54:16.665Z,67.30
2018-02-05T15:56:45.155Z,67.50
2018-02-05T15:59:13.544Z,67.60
2018-02-05T16:01:41.960Z,67.70
2018-02-05T16:04:09.701Z,67.70
2018-02-05T16:06:37.351Z,67.90
2018-02-05T16:09:05.732Z,68.10
2018-02-05T16:11:34.157Z,68.20
2018-02-05T16:14:01.854Z,68.20
2018-02-05T16:16:29.632Z,68.30
2018-02-05T16:18:58.007Z,68.60
2018-02-05T16:21:25.695Z,68.60
2018-02-05T16:23:53.320Z,68.70
2018-02-05T16:26:21.020Z,68.90
2018-02-05T16:28:49.596Z,69.20
2018-02-05T16:31:17.371Z,69.20
2018-02-05T16:33:45.859Z,69.40
2018-02-05T16:36:13.499Z,69.40
2018-02-05T16:38:41.912Z,69.50
2018-02-05T16:41:09.561Z,69.40
2018-02-05T16:43:37.945Z,69.50
2018-02-05T16:46:05.652Z,69.50
2018-02-05T16:48:41.308Z,69.50
2018-02-05T16:51:09.903Z,69.60
2018-02-05T16:53:37.532Z,69.60
2018-02-05T16:56:05.141Z,69.60
2018-02-05T16:58:33.549Z,69.90
2018-02-05T17:01:01.160Z,69.90
2018-02-05T17:03:28.784Z,70.00
2018-02-05T17:05:56.366Z,70.00
2018-02-05T17:08:23.996Z,69.60
2018-02-05T17:10:52.356Z,68.80
2018-02-05T17:13:20.020Z,68.80
2018-02-05T17:15:48.499Z,68.50
2018-02-05T17:18:16.987Z,68.50
2018-02-05T17:20:44.576Z,68.50
2018-02-05T17:23:13.019Z,67.80
2018-02-05T17:25:41.403Z,67.70
2018-02-05T17:28:09.776Z,67.60
2018-02-05T17:30:38.163Z,68.30
2018-02-05T17:33:06.539Z,68.10
2018-02-05T17:35:34.942Z,67.80
2018-02-05T17:38:02.560Z,67.70
2018-02-05T17:40:30.184Z,67.70
2018-02-05T17:42:57.828Z,70.20
2018-02-05T17:45:25.460Z,70.60
2018-02-05T17:47:53.044Z,71.80
2018-02-05T17:50:20.642Z,73.30
2018-02-05T17:52:48.228Z,72.30
2018-02-05T17:55:15.848Z,70.90
2018-02-05T17:57:44.194Z,69.00
2018-02-05T18:00:11.814Z,68.90
2018-02-05T18:02:39.431Z,68.20
2018-02-05T18:05:07.089Z,67.80
2018-02-05T18:07:35.663Z,67.50
2018-02-05T18:10:04.038Z,67.60
2018-02-05T18:12:32.432Z,67.50
2018-02-05T18:15:01.095Z,67.60
2018-02-05T18:17:28.736Z,67.60
2018-02-05T18:19:56.431Z,67.80
2018-02-05T18:22:24.061Z,67.80
2018-02-05T18:24:51.755Z,67.80
2018-02-05T18:27:20.252Z,68.00
2018-02-05T18:29:47.912Z,68.00
2018-02-05T18:32:16.312Z,68.10
2018-02-05T18:34:43.951Z,68.00
2018-02-05T18:37:12.440Z,68.00
2018-02-05T18:39:40.915Z,68.00
2018-02-05T18:42:09.315Z,67.90
2018-02-05T18:44:36.964Z,67.80
2018-02-05T18:47:05.441Z,67.80
2018-02-05T18:49:33.928Z,67.80
2018-02-05T18:52:02.399Z,67.90
2018-02-05T18:54:30.893Z,67.90
2018-02-05T18:56:58.546Z,67.90
2018-02-05T18:59:27.032Z,67.90
2018-02-05T19:02:07.168Z,67.90
2018-02-05T19:04:34.852Z,67.80
2018-02-05T19:07:03.327Z,68.00
2018-02-05T19:09:31.719Z,68.10
2018-02-05T19:12:00.099Z,68.10
2018-02-05T19:14:27.756Z,68.10
2018-02-05T19:16:56.244Z,68.20
2018-02-05T19:19:23.900Z,68.20
2018-02-05T19:21:52.280Z,68.10
2018-02-05T19:24:20.679Z,68.10
2018-02-05T19:26:48.324Z,68.10
2018-02-05T19:29:16.740Z,68.10
2018-02-05T19:31:44.348Z,68.00
2018-02-05T19:34:12.023Z,68.10
2018-02-05T19:36:40.400Z,67.90
2018-02-05T19:39:08.895Z,67.80
2018-02-05T19:41:37.272Z,67.70
2018-02-05T19:44:05.688Z,67.70
2018-02-05T19:46:33.411Z,67.60
2018-02-05T19:49:01.904Z,67.70
2018-02-05T19:51:29.579Z,67.70
2018-02-05T19:53:57.219Z,67.70
2018-02-05T19:56:25.618Z,67.80
2018-02-05T19:58:53.263Z,67.80
2018-02-05T20:01:21.680Z,67.90
2018-02-05T20:03:49.296Z,67.80
2018-02-05T20:06:17.799Z,68.00
2018-02-05T20:08:45.412Z,68.00
2018-02-05T20:11:13.116Z,68.00
2018-02-05T20:13:41.500Z,68.20
2018-02-05T20:16:09.160Z,68.20
2018-02-05T20:18:37.644Z,68.20
2018-02-05T20:21:06.177Z,68.20
2018-02-05T20:23:33.787Z,68.20
2018-02-05T20:26:02.203Z,68.40
2018-02-05T20:28:29.821Z,68.50
2018-02-05T20:30:58.203Z,68.60
2018-02-05T20:33:26.674Z,68.70
2018-02-05T20:35:54.311Z,68.70
2018-02-05T20:38:22.016Z,68.80
2018-02-05T20:40:50.388Z,68.70
2018-02-05T20:43:18.880Z,68.80
2018-02-05T20:45:47.361Z,69.00
2018-02-05T20:48:15.761Z,69.20
2018-02-05T20:50:43.463Z,69.10
2018-02-05T20:53:11.163Z,69.40
2018-02-05T20:55:39.552Z,69.80
2018-02-05T20:58:07.207Z,69.80
2018-02-05T21:00:35.644Z,70.10
2018-02-05T21:03:03.416Z,70.10
2018-02-05T21:05:31.116Z,70.10
2018-02-05T21:07:59.511Z,70.10
2018-02-05T21:10:27.116Z,70.10
2018-02-05T21:12:54.751Z,70.00
2018-02-05T21:15:22.374Z,69.90
2018-02-05T21:17:50.860Z,70.00
2018-02-05T21:20:19.235Z,70.10
2018-02-05T21:22:47.629Z,70.20
2018-02-05T21:25:16.024Z,70.40
2018-02-05T21:27:43.661Z,70.30
2018-02-05T21:32:46.469Z,70.60
2018-02-05T21:35:14.870Z,71.10
2018-02-05T21:37:42.481Z,71.00
2018-02-05T21:40:10.171Z,71.20
2018-02-05T21:42:38.543Z,71.40
2018-02-05T21:45:06.931Z,71.50
2018-02-05T21:47:35.420Z,71.70
2018-02-05T21:50:03.819Z,71.80
2018-02-05T21:52:31.436Z,71.80
2018-02-05T21:54:59.072Z,71.90
2018-02-05T21:57:26.692Z,71.70
2018-02-05T21:59:54.328Z,71.60
2018-02-05T22:02:21.939Z,71.50
2018-02-05T22:04:49.576Z,71.50
2018-02-05T22:07:17.222Z,71.50
2018-02-05T22:09:45.625Z,71.70
2018-02-05T22:12:13.276Z,71.70
2018-02-05T22:14:41.684Z,71.90
2018-02-05T22:17:09.311Z,71.90
2018-02-05T22:19:37.800Z,71.90
2018-02-05T22:22:06.176Z,71.70
2018-02-05T22:24:34.576Z,71.50
2018-02-05T22:27:02.180Z,71.50
2018-02-05T22:29:29.818Z,71.30
2018-02-05T22:31:57.448Z,71.10
2018-02-05T22:34:25.929Z,70.60
2018-02-05T22:36:53.589Z,70.70
2018-02-05T22:39:22.073Z,70.40
2018-02-05T22:41:50.550Z,70.20
2018-02-05T22:44:18.927Z,70.20
2018-02-05T22:46:47.324Z,70.20
2018-02-05T22:49:14.927Z,70.20
2018-02-05T22:51:42.568Z,70.10
2018-02-05T22:54:10.180Z,70.00
2018-02-05T22:56:37.807Z,69.90
2018-02-05T22:59:05.412Z,70.10
2018-02-05T23:01:33.802Z,69.80
2018-02-05T23:04:02.696Z,69.90
2018-02-05T23:06:31.097Z,70.00
2018-02-05T23:08:58.703Z,70.00
2018-02-05T23:11:27.834Z,70.00
2018-02-05T23:13:56.483Z,70.00
2018-02-05T23:16:24.184Z,70.00
2018-02-05T23:18:52.565Z,69.90
2018-02-05T23:21:20.204Z,70.00
2018-02-05T23:23:48.574Z,69.50
2018-02-05T23:26:16.232Z,70.10
2018-02-05T23:28:43.928Z,70.00
2018-02-05T23:31:12.309Z,69.90
2018-02-05T23:33:40.708Z,69.90
2018-02-05T23:36:08.319Z,70.00
2018-02-05T23:38:36.018Z,69.90
2018-02-05T23:41:04.501Z,69.90
2018-02-05T23:43:32.186Z,69.90
2018-02-05T23:45:59.800Z,69.80
2018-02-05T23:48:27.437Z,70.00
2018-02-05T23:50:55.120Z,70.00
2018-02-05T23:53:22.767Z,70.20
2018-02-05T23:55:50.387Z,70.10
2018-02-05T23:58:18.132Z,70.30
